sensor_id;sensor_type;location;lat;lon;timestamp;P1;durP1;ratioP1;P2;durP2;ratioP2
12921;SDS011;6528;48.086;16.282;2022-07-05T00:01:32;3.83;;;3.53;;
12921;SDS011;6528;48.086;16.282;2022-07-05T00:03:59;3.73;;;3.53;;
12921;SDS011;6528;48.086;16.282;2022-07-05T00:06:25;4.23;;;3.93;;
12921;SDS011;6528;48.086;16.282;2022-07-05T00:08:52;4.90;;;4.50;;
12921;SDS011;6528;48.086;16.282;2022-07-05T00:11:19;3.87;;;3.57;;
12921;SDS011;6528;48.086;16.282;2022-07-05T00:13:46;4.43;;;4.13;;
12921;SDS011;6528;48.086;16.282;2022-07-05T00:16:13;4.37;;;4.07;;
12921;SDS011;6528;48.086;16.282;2022-07-05T00:18:39;3.97;;;3.67;;
12921;SDS011;6528;48.086;16.282;2022-07-05T00:21:06;4.00;;;3.73;;
12921;SDS011;6528;48.086;16.282;2022-07-05T00:23:33;3.77;;;3.57;;
12921;SDS011;6528;48.086;16.282;2022-07-05T00:26:00;4.47;;;4.07;;
12921;SDS011;6528;48.086;16.282;2022-07-05T00:28:27;4.10;;;3.80;;
12921;SDS011;6528;48.086;16.282;2022-07-05T00:30:54;4.03;;;3.73;;
12921;SDS011;6528;48.086;16.282;2022-07-05T00:33:20;4.07;;;3.77;;
12921;SDS011;6528;48.086;16.282;2022-07-05T00:35:47;3.87;;;3.40;;
12921;SDS011;6528;48.086;16.282;2022-07-05T00:38:14;3.60;;;3.40;;
12921;SDS011;6528;48.086;16.282;2022-07-05T00:40:42;4.30;;;3.80;;
12921;SDS011;6528;48.086;16.282;2022-07-05T00:43:09;4.17;;;3.70;;
12921;SDS011;6528;48.086;16.282;2022-07-05T00:45:36;8.43;;;3.50;;
12921;SDS011;6528;48.086;16.282;2022-07-05T00:48:03;4.67;;;3.83;;
12921;SDS011;6528;48.086;16.282;2022-07-05T00:50:30;3.50;;;3.27;;
12921;SDS011;6528;48.086;16.282;2022-07-05T00:52:57;3.63;;;3.43;;
12921;SDS011;6528;48.086;16.282;2022-07-05T00:55:25;3.20;;;3.00;;
12921;SDS011;6528;48.086;16.282;2022-07-05T00:57:52;3.80;;;3.50;;
12921;SDS011;6528;48.086;16.282;2022-07-05T01:00:21;3.87;;;3.57;;
12921;SDS011;6528;48.086;16.282;2022-07-05T01:02:47;4.10;;;3.70;;
12921;SDS011;6528;48.086;16.282;2022-07-05T01:05:15;3.87;;;3.57;;
12921;SDS011;6528;48.086;16.282;2022-07-05T01:07:42;3.70;;;3.40;;
12921;SDS011;6528;48.086;16.282;2022-07-05T01:10:09;3.90;;;3.70;;
12921;SDS011;6528;48.086;16.282;2022-07-05T01:12:39;4.10;;;3.70;;
12921;SDS011;6528;48.086;16.282;2022-07-05T01:15:07;3.40;;;3.10;;
12921;SDS011;6528;48.086;16.282;2022-07-05T01:17:35;3.30;;;3.10;;
12921;SDS011;6528;48.086;16.282;2022-07-05T01:20:03;4.10;;;3.70;;
12921;SDS011;6528;48.086;16.282;2022-07-05T01:22:51;4.37;;;3.47;;
12921;SDS011;6528;48.086;16.282;2022-07-05T01:25:22;3.87;;;3.60;;
12921;SDS011;6528;48.086;16.282;2022-07-05T01:27:50;3.60;;;3.23;;
12921;SDS011;6528;48.086;16.282;2022-07-05T01:30:17;4.10;;;3.83;;
12921;SDS011;6528;48.086;16.282;2022-07-05T01:32:44;4.17;;;3.70;;
12921;SDS011;6528;48.086;16.282;2022-07-05T01:35:12;3.70;;;3.40;;
12921;SDS011;6528;48.086;16.282;2022-07-05T01:37:39;3.70;;;3.37;;
12921;SDS011;6528;48.086;16.282;2022-07-05T01:40:06;3.50;;;3.30;;
12921;SDS011;6528;48.086;16.282;2022-07-05T01:42:34;3.93;;;3.63;;
12921;SDS011;6528;48.086;16.282;2022-07-05T01:45:00;4.13;;;3.83;;
12921;SDS011;6528;48.086;16.282;2022-07-05T01:47:27;4.33;;;3.87;;
12921;SDS011;6528;48.086;16.282;2022-07-05T01:49:54;3.27;;;3.07;;
12921;SDS011;6528;48.086;16.282;2022-07-05T01:52:25;3.40;;;3.20;;
12921;SDS011;6528;48.086;16.282;2022-07-05T01:54:55;3.70;;;3.30;;
12921;SDS011;6528;48.086;16.282;2022-07-05T01:57:23;3.83;;;3.53;;
12921;SDS011;6528;48.086;16.282;2022-07-05T01:59:50;4.23;;;3.37;;
12921;SDS011;6528;48.086;16.282;2022-07-05T02:02:17;4.67;;;3.20;;
12921;SDS011;6528;48.086;16.282;2022-07-05T02:04:46;3.60;;;3.30;;
12921;SDS011;6528;48.086;16.282;2022-07-05T02:07:13;3.20;;;3.00;;
12921;SDS011;6528;48.086;16.282;2022-07-05T02:09:40;4.53;;;3.60;;
12921;SDS011;6528;48.086;16.282;2022-07-05T02:12:08;3.60;;;3.30;;
12921;SDS011;6528;48.086;16.282;2022-07-05T02:14:35;3.77;;;3.47;;
12921;SDS011;6528;48.086;16.282;2022-07-05T02:17:02;3.67;;;3.37;;
12921;SDS011;6528;48.086;16.282;2022-07-05T02:19:29;5.70;;;3.70;;
12921;SDS011;6528;48.086;16.282;2022-07-05T02:21:56;3.40;;;3.20;;
12921;SDS011;6528;48.086;16.282;2022-07-05T02:24:22;3.00;;;2.80;;
12921;SDS011;6528;48.086;16.282;2022-07-05T02:26:50;3.03;;;2.83;;
12921;SDS011;6528;48.086;16.282;2022-07-05T02:29:17;2.97;;;2.83;;
12921;SDS011;6528;48.086;16.282;2022-07-05T02:31:44;3.30;;;3.00;;
12921;SDS011;6528;48.086;16.282;2022-07-05T02:34:10;3.33;;;3.10;;
12921;SDS011;6528;48.086;16.282;2022-07-05T02:36:37;3.97;;;3.67;;
12921;SDS011;6528;48.086;16.282;2022-07-05T02:39:04;2.97;;;2.77;;
12921;SDS011;6528;48.086;16.282;2022-07-05T02:41:31;2.80;;;2.70;;
12921;SDS011;6528;48.086;16.282;2022-07-05T02:43:58;4.63;;;2.90;;
12921;SDS011;6528;48.086;16.282;2022-07-05T02:46:24;3.30;;;3.10;;
12921;SDS011;6528;48.086;16.282;2022-07-05T02:48:51;3.20;;;3.00;;
12921;SDS011;6528;48.086;16.282;2022-07-05T02:51:24;3.70;;;3.17;;
12921;SDS011;6528;48.086;16.282;2022-07-05T02:53:51;2.90;;;2.70;;
12921;SDS011;6528;48.086;16.282;2022-07-05T02:56:18;2.70;;;2.53;;
12921;SDS011;6528;48.086;16.282;2022-07-05T02:58:44;3.30;;;3.00;;
12921;SDS011;6528;48.086;16.282;2022-07-05T03:01:11;2.70;;;2.50;;
12921;SDS011;6528;48.086;16.282;2022-07-05T03:03:38;4.37;;;3.30;;
12921;SDS011;6528;48.086;16.282;2022-07-05T03:06:05;2.63;;;2.43;;
12921;SDS011;6528;48.086;16.282;2022-07-05T03:08:32;3.03;;;2.73;;
12921;SDS011;6528;48.086;16.282;2022-07-05T03:10:59;3.20;;;2.90;;
12921;SDS011;6528;48.086;16.282;2022-07-05T03:13:25;2.63;;;2.47;;
12921;SDS011;6528;48.086;16.282;2022-07-05T03:15:52;2.80;;;2.60;;
12921;SDS011;6528;48.086;16.282;2022-07-05T03:18:19;2.90;;;2.70;;
12921;SDS011;6528;48.086;16.282;2022-07-05T03:20:46;2.87;;;2.67;;
12921;SDS011;6528;48.086;16.282;2022-07-05T03:23:12;3.07;;;2.83;;
12921;SDS011;6528;48.086;16.282;2022-07-05T03:25:39;3.03;;;2.73;;
12921;SDS011;6528;48.086;16.282;2022-07-05T03:28:06;3.20;;;3.00;;
12921;SDS011;6528;48.086;16.282;2022-07-05T03:30:33;3.50;;;2.93;;
12921;SDS011;6528;48.086;16.282;2022-07-05T03:32:59;3.30;;;2.73;;
12921;SDS011;6528;48.086;16.282;2022-07-05T03:35:26;3.50;;;2.73;;
12921;SDS011;6528;48.086;16.282;2022-07-05T03:37:54;2.90;;;2.70;;
12921;SDS011;6528;48.086;16.282;2022-07-05T03:40:20;2.87;;;2.67;;
12921;SDS011;6528;48.086;16.282;2022-07-05T03:42:47;2.30;;;2.20;;
12921;SDS011;6528;48.086;16.282;2022-07-05T03:45:14;2.77;;;2.57;;
12921;SDS011;6528;48.086;16.282;2022-07-05T03:47:41;2.50;;;2.40;;
12921;SDS011;6528;48.086;16.282;2022-07-05T03:50:08;3.23;;;2.93;;
12921;SDS011;6528;48.086;16.282;2022-07-05T03:52:35;3.47;;;2.90;;
12921;SDS011;6528;48.086;16.282;2022-07-05T03:55:02;3.17;;;2.97;;
12921;SDS011;6528;48.086;16.282;2022-07-05T03:57:29;3.73;;;3.10;;
12921;SDS011;6528;48.086;16.282;2022-07-05T03:59:56;3.50;;;3.30;;
12921;SDS011;6528;48.086;16.282;2022-07-05T04:02:23;4.50;;;4.10;;
12921;SDS011;6528;48.086;16.282;2022-07-05T04:04:49;3.70;;;3.40;;
12921;SDS011;6528;48.086;16.282;2022-07-05T04:07:16;3.70;;;3.37;;
12921;SDS011;6528;48.086;16.282;2022-07-05T04:09:43;3.47;;;3.27;;
12921;SDS011;6528;48.086;16.282;2022-07-05T04:12:10;3.33;;;3.13;;
12921;SDS011;6528;48.086;16.282;2022-07-05T04:14:37;3.80;;;3.60;;
12921;SDS011;6528;48.086;16.282;2022-07-05T04:17:04;3.60;;;3.40;;
12921;SDS011;6528;48.086;16.282;2022-07-05T04:19:31;3.77;;;3.43;;
12921;SDS011;6528;48.086;16.282;2022-07-05T04:21:57;3.40;;;3.20;;
12921;SDS011;6528;48.086;16.282;2022-07-05T04:24:24;4.73;;;3.73;;
12921;SDS011;6528;48.086;16.282;2022-07-05T04:26:51;3.60;;;3.30;;
12921;SDS011;6528;48.086;16.282;2022-07-05T04:29:18;3.90;;;3.53;;
12921;SDS011;6528;48.086;16.282;2022-07-05T04:31:45;3.40;;;3.10;;
12921;SDS011;6528;48.086;16.282;2022-07-05T04:34:12;3.67;;;3.37;;
12921;SDS011;6528;48.086;16.282;2022-07-05T04:36:38;3.60;;;3.30;;
12921;SDS011;6528;48.086;16.282;2022-07-05T04:39:07;3.10;;;2.90;;
12921;SDS011;6528;48.086;16.282;2022-07-05T04:41:34;3.27;;;3.07;;
12921;SDS011;6528;48.086;16.282;2022-07-05T04:44:01;4.13;;;3.70;;
12921;SDS011;6528;48.086;16.282;2022-07-05T04:46:28;3.37;;;3.07;;
12921;SDS011;6528;48.086;16.282;2022-07-05T04:48:55;4.43;;;3.37;;
12921;SDS011;6528;48.086;16.282;2022-07-05T04:51:23;5.57;;;3.30;;
12921;SDS011;6528;48.086;16.282;2022-07-05T04:53:50;3.60;;;3.40;;
12921;SDS011;6528;48.086;16.282;2022-07-05T04:56:16;2.93;;;2.73;;
12921;SDS011;6528;48.086;16.282;2022-07-05T04:58:43;3.57;;;3.30;;
12921;SDS011;6528;48.086;16.282;2022-07-05T05:01:10;3.20;;;3.00;;
12921;SDS011;6528;48.086;16.282;2022-07-05T05:03:37;3.40;;;3.20;;
12921;SDS011;6528;48.086;16.282;2022-07-05T05:06:04;3.57;;;3.33;;
12921;SDS011;6528;48.086;16.282;2022-07-05T05:08:31;3.30;;;3.10;;
12921;SDS011;6528;48.086;16.282;2022-07-05T05:10:57;3.60;;;3.30;;
12921;SDS011;6528;48.086;16.282;2022-07-05T05:13:24;3.50;;;3.20;;
12921;SDS011;6528;48.086;16.282;2022-07-05T05:15:51;3.10;;;3.00;;
12921;SDS011;6528;48.086;16.282;2022-07-05T05:18:18;3.23;;;3.07;;
12921;SDS011;6528;48.086;16.282;2022-07-05T05:20:47;3.43;;;3.10;;
12921;SDS011;6528;48.086;16.282;2022-07-05T05:23:14;3.03;;;2.80;;
12921;SDS011;6528;48.086;16.282;2022-07-05T05:25:41;3.23;;;3.07;;
12921;SDS011;6528;48.086;16.282;2022-07-05T05:28:07;3.87;;;3.63;;
12921;SDS011;6528;48.086;16.282;2022-07-05T05:30:34;4.37;;;4.03;;
12921;SDS011;6528;48.086;16.282;2022-07-05T05:33:01;3.70;;;3.40;;
12921;SDS011;6528;48.086;16.282;2022-07-05T05:35:28;4.23;;;3.93;;
12921;SDS011;6528;48.086;16.282;2022-07-05T05:37:55;3.83;;;3.30;;
12921;SDS011;6528;48.086;16.282;2022-07-05T05:40:23;3.43;;;3.23;;
12921;SDS011;6528;48.086;16.282;2022-07-05T05:42:51;3.53;;;3.23;;
12921;SDS011;6528;48.086;16.282;2022-07-05T05:45:19;3.23;;;3.03;;
12921;SDS011;6528;48.086;16.282;2022-07-05T05:47:48;4.17;;;3.87;;
12921;SDS011;6528;48.086;16.282;2022-07-05T05:50:20;4.00;;;3.70;;
12921;SDS011;6528;48.086;16.282;2022-07-05T05:52:54;3.90;;;3.50;;
12921;SDS011;6528;48.086;16.282;2022-07-05T05:55:22;3.13;;;2.93;;
12921;SDS011;6528;48.086;16.282;2022-07-05T05:57:50;3.40;;;2.77;;
12921;SDS011;6528;48.086;16.282;2022-07-05T06:00:17;3.03;;;2.53;;
12921;SDS011;6528;48.086;16.282;2022-07-05T06:02:45;3.10;;;2.90;;
12921;SDS011;6528;48.086;16.282;2022-07-05T06:05:13;3.00;;;2.80;;
12921;SDS011;6528;48.086;16.282;2022-07-05T06:07:50;3.20;;;3.00;;
12921;SDS011;6528;48.086;16.282;2022-07-05T06:10:22;3.20;;;2.73;;
12921;SDS011;6528;48.086;16.282;2022-07-05T06:12:51;3.97;;;2.93;;
12921;SDS011;6528;48.086;16.282;2022-07-05T06:15:19;2.53;;;2.43;;
12921;SDS011;6528;48.086;16.282;2022-07-05T06:17:47;2.77;;;2.57;;
12921;SDS011;6528;48.086;16.282;2022-07-05T06:20:25;2.90;;;2.70;;
12921;SDS011;6528;48.086;16.282;2022-07-05T06:22:54;2.10;;;2.00;;
12921;SDS011;6528;48.086;16.282;2022-07-05T06:25:21;2.50;;;2.30;;
12921;SDS011;6528;48.086;16.282;2022-07-05T06:27:50;2.20;;;2.10;;
12921;SDS011;6528;48.086;16.282;2022-07-05T06:30:22;2.10;;;2.00;;
12921;SDS011;6528;48.086;16.282;2022-07-05T06:32:50;2.23;;;2.13;;
12921;SDS011;6528;48.086;16.282;2022-07-05T06:35:17;2.37;;;2.00;;
12921;SDS011;6528;48.086;16.282;2022-07-05T06:37:46;2.57;;;2.37;;
12921;SDS011;6528;48.086;16.282;2022-07-05T06:40:21;2.60;;;2.50;;
12921;SDS011;6528;48.086;16.282;2022-07-05T06:42:49;1.83;;;1.73;;
12921;SDS011;6528;48.086;16.282;2022-07-05T06:45:17;1.63;;;1.53;;
12921;SDS011;6528;48.086;16.282;2022-07-05T06:47:43;1.90;;;1.80;;
12921;SDS011;6528;48.086;16.282;2022-07-05T06:50:11;2.63;;;2.43;;
12921;SDS011;6528;48.086;16.282;2022-07-05T06:52:38;2.50;;;2.30;;
12921;SDS011;6528;48.086;16.282;2022-07-05T06:55:06;2.00;;;1.90;;
12921;SDS011;6528;48.086;16.282;2022-07-05T06:57:33;2.00;;;1.90;;
12921;SDS011;6528;48.086;16.282;2022-07-05T07:00:00;2.10;;;2.00;;
12921;SDS011;6528;48.086;16.282;2022-07-05T07:02:28;1.80;;;1.63;;
12921;SDS011;6528;48.086;16.282;2022-07-05T07:04:55;2.00;;;1.90;;
12921;SDS011;6528;48.086;16.282;2022-07-05T07:07:39;2.00;;;1.90;;
12921;SDS011;6528;48.086;16.282;2022-07-05T07:10:25;1.70;;;1.60;;
12921;SDS011;6528;48.086;16.282;2022-07-05T07:12:55;1.73;;;1.63;;
12921;SDS011;6528;48.086;16.282;2022-07-05T07:15:26;1.73;;;1.63;;
12921;SDS011;6528;48.086;16.282;2022-07-05T07:17:53;1.77;;;1.67;;
12921;SDS011;6528;48.086;16.282;2022-07-05T07:20:20;2.60;;;1.87;;
12921;SDS011;6528;48.086;16.282;2022-07-05T07:22:47;2.50;;;2.10;;
12921;SDS011;6528;48.086;16.282;2022-07-05T07:25:14;1.80;;;1.70;;
12921;SDS011;6528;48.086;16.282;2022-07-05T07:27:44;1.93;;;1.83;;
12921;SDS011;6528;48.086;16.282;2022-07-05T07:30:12;1.63;;;1.53;;
12921;SDS011;6528;48.086;16.282;2022-07-05T07:32:40;1.83;;;1.73;;
12921;SDS011;6528;48.086;16.282;2022-07-05T07:35:08;1.20;;;1.20;;
12921;SDS011;6528;48.086;16.282;2022-07-05T07:37:35;1.20;;;1.20;;
12921;SDS011;6528;48.086;16.282;2022-07-05T07:40:02;1.23;;;1.23;;
12921;SDS011;6528;48.086;16.282;2022-07-05T07:42:30;1.30;;;1.27;;
12921;SDS011;6528;48.086;16.282;2022-07-05T07:44:57;0.97;;;0.97;;
12921;SDS011;6528;48.086;16.282;2022-07-05T07:47:24;3.90;;;1.00;;
12921;SDS011;6528;48.086;16.282;2022-07-05T07:49:51;1.13;;;1.03;;
12921;SDS011;6528;48.086;16.282;2022-07-05T07:52:17;0.40;;;0.40;;
12921;SDS011;6528;48.086;16.282;2022-07-05T07:54:44;0.77;;;0.60;;
12921;SDS011;6528;48.086;16.282;2022-07-05T07:57:11;0.57;;;0.57;;
12921;SDS011;6528;48.086;16.282;2022-07-05T07:59:38;0.60;;;0.60;;
12921;SDS011;6528;48.086;16.282;2022-07-05T08:02:05;0.50;;;0.50;;
12921;SDS011;6528;48.086;16.282;2022-07-05T08:04:32;0.40;;;0.40;;
12921;SDS011;6528;48.086;16.282;2022-07-05T08:06:59;0.60;;;0.60;;
12921;SDS011;6528;48.086;16.282;2022-07-05T08:09:26;0.50;;;0.50;;
12921;SDS011;6528;48.086;16.282;2022-07-05T08:11:53;0.50;;;0.50;;
12921;SDS011;6528;48.086;16.282;2022-07-05T08:14:19;0.60;;;0.60;;
12921;SDS011;6528;48.086;16.282;2022-07-05T08:16:46;0.40;;;0.40;;
12921;SDS011;6528;48.086;16.282;2022-07-05T08:19:17;0.40;;;0.40;;
12921;SDS011;6528;48.086;16.282;2022-07-05T08:22:03;0.60;;;0.60;;
12921;SDS011;6528;48.086;16.282;2022-07-05T08:24:31;0.60;;;0.60;;
12921;SDS011;6528;48.086;16.282;2022-07-05T08:26:57;0.50;;;0.50;;
12921;SDS011;6528;48.086;16.282;2022-07-05T08:29:24;0.50;;;0.50;;
12921;SDS011;6528;48.086;16.282;2022-07-05T08:31:51;0.60;;;0.60;;
12921;SDS011;6528;48.086;16.282;2022-07-05T08:34:19;1.00;;;0.47;;
12921;SDS011;6528;48.086;16.282;2022-07-05T08:36:46;0.50;;;0.50;;
12921;SDS011;6528;48.086;16.282;2022-07-05T08:39:13;0.60;;;0.60;;
12921;SDS011;6528;48.086;16.282;2022-07-05T08:41:42;0.67;;;0.67;;
12921;SDS011;6528;48.086;16.282;2022-07-05T08:44:15;0.50;;;0.50;;
12921;SDS011;6528;48.086;16.282;2022-07-05T08:46:49;1.17;;;0.80;;
12921;SDS011;6528;48.086;16.282;2022-07-05T08:49:22;0.70;;;0.70;;
12921;SDS011;6528;48.086;16.282;2022-07-05T08:51:51;1.47;;;0.50;;
12921;SDS011;6528;48.086;16.282;2022-07-05T08:54:20;0.70;;;0.50;;
12921;SDS011;6528;48.086;16.282;2022-07-05T08:56:48;1.07;;;0.70;;
12921;SDS011;6528;48.086;16.282;2022-07-05T08:59:35;1.57;;;0.90;;
12921;SDS011;6528;48.086;16.282;2022-07-05T09:02:02;0.73;;;0.73;;
12921;SDS011;6528;48.086;16.282;2022-07-05T09:04:33;0.90;;;0.90;;
12921;SDS011;6528;48.086;16.282;2022-07-05T09:07:04;0.73;;;0.73;;
12921;SDS011;6528;48.086;16.282;2022-07-05T09:09:34;2.70;;;0.67;;
12921;SDS011;6528;48.086;16.282;2022-07-05T09:12:11;1.10;;;1.00;;
12921;SDS011;6528;48.086;16.282;2022-07-05T09:14:50;0.90;;;0.90;;
12921;SDS011;6528;48.086;16.282;2022-07-05T09:17:17;2.00;;;0.90;;
12921;SDS011;6528;48.086;16.282;2022-07-05T09:19:44;0.90;;;0.90;;
12921;SDS011;6528;48.086;16.282;2022-07-05T09:22:41;1.40;;;0.73;;
12921;SDS011;6528;48.086;16.282;2022-07-05T09:25:28;0.77;;;0.77;;
12921;SDS011;6528;48.086;16.282;2022-07-05T09:30:37;0.97;;;0.97;;
12921;SDS011;6528;48.086;16.282;2022-07-05T09:33:05;0.90;;;0.90;;
12921;SDS011;6528;48.086;16.282;2022-07-05T09:35:50;0.90;;;0.90;;
12921;SDS011;6528;48.086;16.282;2022-07-05T09:38:26;1.10;;;1.10;;
12921;SDS011;6528;48.086;16.282;2022-07-05T09:40:57;1.17;;;1.00;;
12921;SDS011;6528;48.086;16.282;2022-07-05T09:43:28;1.70;;;1.60;;
12921;SDS011;6528;48.086;16.282;2022-07-05T09:45:56;1.10;;;1.10;;
12921;SDS011;6528;48.086;16.282;2022-07-05T09:48:27;0.90;;;0.90;;
12921;SDS011;6528;48.086;16.282;2022-07-05T09:51:13;1.20;;;0.93;;
12921;SDS011;6528;48.086;16.282;2022-07-05T09:54:01;1.17;;;1.17;;
12921;SDS011;6528;48.086;16.282;2022-07-05T09:56:47;1.07;;;1.07;;
12921;SDS011;6528;48.086;16.282;2022-07-05T09:59:16;0.97;;;0.97;;
12921;SDS011;6528;48.086;16.282;2022-07-05T10:01:45;1.90;;;1.07;;
12921;SDS011;6528;48.086;16.282;2022-07-05T10:04:13;1.20;;;1.20;;
12921;SDS011;6528;48.086;16.282;2022-07-05T10:06:40;1.90;;;1.70;;
12921;SDS011;6528;48.086;16.282;2022-07-05T10:09:09;3.60;;;1.23;;
12921;SDS011;6528;48.086;16.282;2022-07-05T10:11:40;1.87;;;1.00;;
12921;SDS011;6528;48.086;16.282;2022-07-05T10:14:18;1.67;;;1.30;;
12921;SDS011;6528;48.086;16.282;2022-07-05T10:17:06;1.43;;;1.00;;
12921;SDS011;6528;48.086;16.282;2022-07-05T10:19:38;1.00;;;1.00;;
12921;SDS011;6528;48.086;16.282;2022-07-05T10:22:08;3.50;;;1.83;;
12921;SDS011;6528;48.086;16.282;2022-07-05T10:24:44;1.43;;;1.37;;
12921;SDS011;6528;48.086;16.282;2022-07-05T10:27:12;1.40;;;1.40;;
12921;SDS011;6528;48.086;16.282;2022-07-05T10:29:40;1.30;;;1.20;;
12921;SDS011;6528;48.086;16.282;2022-07-05T10:32:08;1.60;;;1.50;;
12921;SDS011;6528;48.086;16.282;2022-07-05T10:34:36;1.23;;;1.23;;
12921;SDS011;6528;48.086;16.282;2022-07-05T10:37:25;1.63;;;1.47;;
12921;SDS011;6528;48.086;16.282;2022-07-05T10:39:56;1.63;;;1.63;;
12921;SDS011;6528;48.086;16.282;2022-07-05T10:42:25;1.97;;;1.77;;
12921;SDS011;6528;48.086;16.282;2022-07-05T10:44:55;1.57;;;1.47;;
12921;SDS011;6528;48.086;16.282;2022-07-05T10:47:22;1.73;;;1.63;;
12921;SDS011;6528;48.086;16.282;2022-07-05T10:50:02;1.70;;;1.60;;
12921;SDS011;6528;48.086;16.282;2022-07-05T10:52:31;3.10;;;2.00;;
12921;SDS011;6528;48.086;16.282;2022-07-05T11:00:43;2.00;;;1.90;;
12921;SDS011;6528;48.086;16.282;2022-07-05T11:03:32;2.40;;;1.87;;
12921;SDS011;6528;48.086;16.282;2022-07-05T11:06:02;2.53;;;2.40;;
12921;SDS011;6528;48.086;16.282;2022-07-05T11:08:31;2.53;;;1.90;;
12921;SDS011;6528;48.086;16.282;2022-07-05T11:11:24;2.53;;;2.33;;
12921;SDS011;6528;48.086;16.282;2022-07-05T11:13:51;2.50;;;2.30;;
12921;SDS011;6528;48.086;16.282;2022-07-05T11:18:52;2.07;;;1.97;;
12921;SDS011;6528;48.086;16.282;2022-07-05T11:21:30;2.27;;;2.17;;
12921;SDS011;6528;48.086;16.282;2022-07-05T11:26:49;2.10;;;2.00;;
12921;SDS011;6528;48.086;16.282;2022-07-05T11:32:16;2.50;;;2.40;;
12921;SDS011;6528;48.086;16.282;2022-07-05T11:34:49;2.40;;;2.30;;
12921;SDS011;6528;48.086;16.282;2022-07-05T11:42:47;4.37;;;3.37;;
12921;SDS011;6528;48.086;16.282;2022-07-05T11:45:14;2.97;;;2.77;;
12921;SDS011;6528;48.086;16.282;2022-07-05T11:47:42;3.00;;;2.80;;
12921;SDS011;6528;48.086;16.282;2022-07-05T11:50:10;3.30;;;3.10;;
12921;SDS011;6528;48.086;16.282;2022-07-05T11:52:38;3.10;;;2.80;;
12921;SDS011;6528;48.086;16.282;2022-07-05T11:55:07;3.37;;;3.17;;
12921;SDS011;6528;48.086;16.282;2022-07-05T11:57:47;3.43;;;2.90;;
12921;SDS011;6528;48.086;16.282;2022-07-05T12:00:34;3.30;;;3.10;;
12921;SDS011;6528;48.086;16.282;2022-07-05T12:03:12;3.60;;;3.40;;
12921;SDS011;6528;48.086;16.282;2022-07-05T12:05:39;3.43;;;3.23;;
12921;SDS011;6528;48.086;16.282;2022-07-05T12:08:08;3.30;;;3.10;;
12921;SDS011;6528;48.086;16.282;2022-07-05T12:10:36;3.20;;;3.00;;
12921;SDS011;6528;48.086;16.282;2022-07-05T12:13:56;2.97;;;2.77;;
12921;SDS011;6528;48.086;16.282;2022-07-05T12:16:23;2.80;;;2.60;;
12921;SDS011;6528;48.086;16.282;2022-07-05T12:18:53;3.30;;;3.03;;
12921;SDS011;6528;48.086;16.282;2022-07-05T12:21:27;3.30;;;2.73;;
12921;SDS011;6528;48.086;16.282;2022-07-05T12:23:54;2.90;;;2.70;;
12921;SDS011;6528;48.086;16.282;2022-07-05T12:26:21;3.40;;;3.00;;
12921;SDS011;6528;48.086;16.282;2022-07-05T12:28:49;2.70;;;2.60;;
12921;SDS011;6528;48.086;16.282;2022-07-05T12:31:22;3.30;;;3.10;;
12921;SDS011;6528;48.086;16.282;2022-07-05T12:33:50;3.07;;;2.80;;
12921;SDS011;6528;48.086;16.282;2022-07-05T12:36:18;3.43;;;3.00;;
12921;SDS011;6528;48.086;16.282;2022-07-05T12:38:49;3.03;;;2.73;;
12921;SDS011;6528;48.086;16.282;2022-07-05T12:41:22;3.70;;;3.10;;
12921;SDS011;6528;48.086;16.282;2022-07-05T12:43:49;3.13;;;2.93;;
12921;SDS011;6528;48.086;16.282;2022-07-05T12:46:18;3.17;;;2.77;;
12921;SDS011;6528;48.086;16.282;2022-07-05T12:48:50;2.40;;;2.30;;
12921;SDS011;6528;48.086;16.282;2022-07-05T12:51:31;3.10;;;2.73;;
12921;SDS011;6528;48.086;16.282;2022-07-05T12:54:08;3.10;;;2.90;;
12921;SDS011;6528;48.086;16.282;2022-07-05T12:57:07;2.93;;;2.73;;
12921;SDS011;6528;48.086;16.282;2022-07-05T13:02:44;3.77;;;3.47;;
12921;SDS011;6528;48.086;16.282;2022-07-05T13:05:19;3.13;;;2.93;;
12921;SDS011;6528;48.086;16.282;2022-07-05T13:07:49;3.00;;;2.77;;
12921;SDS011;6528;48.086;16.282;2022-07-05T13:12:49;2.67;;;2.47;;
12921;SDS011;6528;48.086;16.282;2022-07-05T13:15:16;2.50;;;2.40;;
12921;SDS011;6528;48.086;16.282;2022-07-05T13:17:44;2.57;;;2.47;;
12921;SDS011;6528;48.086;16.282;2022-07-05T13:20:15;2.83;;;2.63;;
12921;SDS011;6528;48.086;16.282;2022-07-05T13:22:44;2.97;;;2.77;;
12921;SDS011;6528;48.086;16.282;2022-07-05T13:25:12;2.47;;;2.20;;
12921;SDS011;6528;48.086;16.282;2022-07-05T13:27:39;2.67;;;2.57;;
12921;SDS011;6528;48.086;16.282;2022-07-05T13:30:06;2.50;;;2.30;;
12921;SDS011;6528;48.086;16.282;2022-07-05T13:32:34;2.40;;;2.30;;
12921;SDS011;6528;48.086;16.282;2022-07-05T13:35:01;2.80;;;2.60;;
12921;SDS011;6528;48.086;16.282;2022-07-05T13:37:28;2.53;;;2.43;;
12921;SDS011;6528;48.086;16.282;2022-07-05T13:39:55;2.50;;;2.40;;
12921;SDS011;6528;48.086;16.282;2022-07-05T13:42:22;2.23;;;2.13;;
12921;SDS011;6528;48.086;16.282;2022-07-05T13:44:49;3.93;;;3.63;;
12921;SDS011;6528;48.086;16.282;2022-07-05T13:47:16;2.50;;;2.40;;
12921;SDS011;6528;48.086;16.282;2022-07-05T13:49:43;3.10;;;2.90;;
12921;SDS011;6528;48.086;16.282;2022-07-05T13:52:10;2.60;;;2.50;;
12921;SDS011;6528;48.086;16.282;2022-07-05T13:54:37;2.37;;;2.27;;
12921;SDS011;6528;48.086;16.282;2022-07-05T13:57:05;5.27;;;3.07;;
12921;SDS011;6528;48.086;16.282;2022-07-05T13:59:32;2.73;;;2.50;;
12921;SDS011;6528;48.086;16.282;2022-07-05T14:01:59;2.90;;;2.70;;
12921;SDS011;6528;48.086;16.282;2022-07-05T14:04:26;2.50;;;2.40;;
12921;SDS011;6528;48.086;16.282;2022-07-05T14:06:56;2.47;;;2.27;;
12921;SDS011;6528;48.086;16.282;2022-07-05T14:09:23;2.97;;;2.77;;
12921;SDS011;6528;48.086;16.282;2022-07-05T14:11:54;2.77;;;2.67;;
12921;SDS011;6528;48.086;16.282;2022-07-05T14:14:21;3.17;;;3.03;;
12921;SDS011;6528;48.086;16.282;2022-07-05T14:16:48;2.40;;;2.30;;
12921;SDS011;6528;48.086;16.282;2022-07-05T14:19:15;2.67;;;2.47;;
12921;SDS011;6528;48.086;16.282;2022-07-05T14:21:42;2.73;;;2.53;;
12921;SDS011;6528;48.086;16.282;2022-07-05T14:24:13;3.10;;;2.73;;
12921;SDS011;6528;48.086;16.282;2022-07-05T14:26:40;2.83;;;2.73;;
12921;SDS011;6528;48.086;16.282;2022-07-05T14:29:07;2.93;;;2.73;;
12921;SDS011;6528;48.086;16.282;2022-07-05T14:31:34;5.30;;;2.80;;
12921;SDS011;6528;48.086;16.282;2022-07-05T14:34:02;3.40;;;3.10;;
12921;SDS011;6528;48.086;16.282;2022-07-05T14:36:29;3.10;;;2.60;;
12921;SDS011;6528;48.086;16.282;2022-07-05T14:38:55;3.00;;;2.80;;
12921;SDS011;6528;48.086;16.282;2022-07-05T14:41:22;3.70;;;2.97;;
12921;SDS011;6528;48.086;16.282;2022-07-05T14:43:49;3.20;;;2.80;;
12921;SDS011;6528;48.086;16.282;2022-07-05T14:46:17;2.90;;;2.70;;
12921;SDS011;6528;48.086;16.282;2022-07-05T14:48:46;3.40;;;3.20;;
12921;SDS011;6528;48.086;16.282;2022-07-05T14:51:13;3.63;;;3.33;;
12921;SDS011;6528;48.086;16.282;2022-07-05T14:53:41;3.97;;;3.67;;
12921;SDS011;6528;48.086;16.282;2022-07-05T14:56:08;3.47;;;3.10;;
12921;SDS011;6528;48.086;16.282;2022-07-05T14:58:35;2.60;;;2.50;;
12921;SDS011;6528;48.086;16.282;2022-07-05T15:01:02;3.60;;;3.30;;
12921;SDS011;6528;48.086;16.282;2022-07-05T15:03:29;3.37;;;3.13;;
12921;SDS011;6528;48.086;16.282;2022-07-05T15:05:56;3.70;;;3.50;;
12921;SDS011;6528;48.086;16.282;2022-07-05T15:08:23;2.97;;;2.87;;
12921;SDS011;6528;48.086;16.282;2022-07-05T15:10:53;2.73;;;2.63;;
12921;SDS011;6528;48.086;16.282;2022-07-05T15:13:19;3.60;;;3.40;;
12921;SDS011;6528;48.086;16.282;2022-07-05T15:15:47;3.00;;;2.80;;
12921;SDS011;6528;48.086;16.282;2022-07-05T15:18:13;3.20;;;3.00;;
12921;SDS011;6528;48.086;16.282;2022-07-05T15:20:40;3.07;;;2.87;;
12921;SDS011;6528;48.086;16.282;2022-07-05T15:23:07;2.73;;;2.53;;
12921;SDS011;6528;48.086;16.282;2022-07-05T15:25:34;3.10;;;2.90;;
12921;SDS011;6528;48.086;16.282;2022-07-05T15:28:01;2.83;;;2.70;;